Flight Track Log - Related Links

Times and Time Zones

All times are in EDT time to prevent confusion due to time zone crossing. See the SWA2336 flight status page for this flight to view local times or setup timezone preferences in your user account.

Time Position Orientation Groundspeed Altitude Reporting Facility
EDT Latitude Longitude Course Direction KTS MPH feet Rate Location/Type
Sat 07:28:30 AM 28.4167 -81.3000 204° Southwest 155 178 500  Level Orlando TRACON
Sat 07:29:18 AM 28.3833 -81.3167 204° Southwest 196 226 2,400 2,950 Climbing Orlando TRACON
Sat 07:30:30 AM 28.3500 -81.3833 240° Southwest 241 277 6,400 3,143 Climbing Orlando TRACON
Sat 07:31:24 AM 28.3667 -81.4500 286° West 243 280 9,000 3,186 Climbing Orlando TRACON
Sat 07:33:27 AM 28.4006 -81.6514 281° West 336 387 15,800 3,016 Climbing Jacksonville Center
Sat 07:34:27 AM 28.4203 -81.7503 283° West 336 387 18,200 2,700 Climbing Jacksonville Center
Sat 07:35:27 AM 28.4442 -81.8586 284° West 346 398 21,200 2,800 Climbing Jacksonville Center
Sat 07:36:27 AM 28.4700 -81.9739 284° West 361 415 23,800 2,550 Climbing Jacksonville Center
Sat 07:37:27 AM 28.4919 -82.1061 281° West 374 430 26,300 2,100 Climbing Jacksonville Center
Sat 07:38:27 AM 28.5133 -82.2311 281° West 393 452 28,000 850 Climbing Jacksonville Center
Sat 07:39:27 AM 28.5472 -82.3467 288° West 393 452 28,000 50 Level Jacksonville Center
Sat 07:40:27 AM 28.6456 -82.3933 337° Northwest 347 399 28,100 250 Climbing Jacksonville Center
Sat 07:41:27 AM 28.7564 -82.4331 343° North 364 419 28,500 1,150 Climbing Jacksonville Center
Sat 07:42:27 AM 28.8775 -82.4822 340° North 406 467 30,400 2,100 Climbing Jacksonville Center
Sat 07:43:27 AM 28.9989 -82.5269 342° North 436 502 32,700 2,350 Climbing Jacksonville Center
Sat 07:44:27 AM 29.1158 -82.5742 341° North 447 514 35,100 2,250 Climbing Jacksonville Center
Sat 07:45:27 AM 29.2286 -82.6167 342° North 441 507 37,200 1,750 Climbing Jacksonville Center
Sat 07:46:27 AM 29.3394 -82.6614 341° North 428 493 38,600 1,150 Climbing Jacksonville Center
Sat 07:47:27 AM 29.4500 -82.7042 341° North 423 487 39,500 700 Climbing Jacksonville Center
Sat 07:48:27 AM 29.5628 -82.7517 340° North 429 494 40,000 250 Climbing Jacksonville Center
Sat 07:49:27 AM 29.6756 -82.7969 341° North 429 494 40,000  Level Jacksonville Center
Sat 07:50:27 AM 29.7883 -82.8422 341° North 429 494 40,000  Level Jacksonville Center
Sat 07:51:27 AM 29.9033 -82.8853 342° North 429 494 40,000  Level Jacksonville Center
Sat 07:52:27 AM 30.0139 -82.9308 340° North 424 488 40,000  Level Jacksonville Center
Sat 07:53:27 AM 30.1161 -82.9694 342° North 424 488 40,000  Level Jacksonville Center
Sat 07:54:27 AM 30.2308 -83.0153 341° North 429 494 40,000  Level Jacksonville Center
Sat 07:55:27 AM 30.3436 -83.0586 342° North 429 494 40,000  Level Jacksonville Center
Sat 07:56:27 AM 30.4564 -83.1047 341° North 429 494 40,000  Level Jacksonville Center
Sat 07:57:27 AM 30.5731 -83.1508 341° North 429 494 40,000  Level Jacksonville Center
Sat 07:58:27 AM 30.6878 -83.1969 341° North 429 494 40,000  Level Jacksonville Center
Sat 07:59:27 AM 30.8025 -83.2456 340° North 429 494 40,000  Level Jacksonville Center
Sat 08:00:27 AM 30.9236 -83.2969 340° North 414 476 40,000  Level Jacksonville Center
Sat 08:01:27 AM 31.0383 -83.3436 341° North 420 483 40,000  Level Jacksonville Center
Sat 08:03:54 AM 31.3047 -83.4531 341° North 435 501 40,000  Level Atlanta Center
Sat 08:04:54 AM 31.4197 -83.5011 340° North 435 501 40,000  Level Atlanta Center
Sat 08:05:54 AM 31.5328 -83.5442 342° North 430 495 40,000  Level Atlanta Center
Sat 08:06:54 AM 31.6478 -83.5900 341° North 430 495 40,000  Level Atlanta Center
Sat 08:07:54 AM 31.7772 -83.6456 340° North 436 502 40,000  Level Atlanta Center
Sat 08:08:54 AM 31.8881 -83.6914 341° North 448 516 40,000  Level Atlanta Center
Sat 08:09:54 AM 32.0031 -83.7425 339° North 448 516 40,000  Level Atlanta Center
Sat 08:10:54 AM 32.1200 -83.7936 340° North 448 516 40,000  Level Atlanta Center
Sat 08:11:54 AM 32.2369 -83.8400 341° North 448 516 40,000  Level Atlanta Center
Sat 08:12:54 AM 32.3539 -83.8889 341° North 448 516 40,000  Level Atlanta Center
Sat 08:13:54 AM 32.4708 -83.9428 339° North 448 516 40,000  Level Atlanta Center
Sat 08:14:54 AM 32.5878 -83.9919 340° North 448 516 40,000  Level Atlanta Center
Sat 08:15:54 AM 32.7025 -84.0389 341° North 448 516 40,000  Level Atlanta Center
Sat 08:16:54 AM 32.8217 -84.0908 340° North 448 516 40,000  Level Atlanta Center
Sat 08:17:54 AM 32.9383 -84.1403 340° North 448 516 40,000  Level Atlanta Center
Sat 08:18:54 AM 33.0656 -84.1950 340° North 448 516 40,000  Level Atlanta Center
Sat 08:19:54 AM 33.1825 -84.2447 340° North 448 516 40,000  Level Atlanta Center
Sat 08:20:54 AM 33.3014 -84.2947 341° North 448 516 40,000  Level Atlanta Center
Sat 08:21:54 AM 33.4181 -84.3475 339° North 448 516 40,000  Level Atlanta Center
Sat 08:22:54 AM 33.5244 -84.3928 340° North 453 521 40,000  Level Atlanta Center
Sat 08:23:54 AM 33.6453 -84.4431 341° North 453 521 40,000  Level Atlanta Center
Sat 08:24:54 AM 33.7706 -84.4736 349° North 453 521 40,000  Level Atlanta Center
Sat 08:25:54 AM 33.8997 -84.5042 349° North 454 522 40,000  Level Atlanta Center
Sat 08:26:54 AM 34.0353 -84.5375 348° North 454 522 40,000  Level Atlanta Center
Sat 08:27:54 AM 34.1689 -84.5686 349° North 469 540 40,000  Level Atlanta Center
Sat 08:28:54 AM 34.2961 -84.5969 350° North 469 540 40,000  Level Atlanta Center
Sat 08:29:54 AM 34.4211 -84.6281 348° North 462 532 40,000  Level Atlanta Center
Sat 08:30:54 AM 34.5317 -84.6539 349° North 462 532 40,000  Level Atlanta Center
Sat 08:31:54 AM 34.6669 -84.6903 348° North 460 529 40,000  Level Atlanta Center
Sat 08:32:54 AM 34.7942 -84.7217 349° North 454 522 40,000  Level Atlanta Center
Sat 08:33:54 AM 34.9192 -84.7531 348° North 454 522 40,000  Level Atlanta Center
Sat 08:34:54 AM 35.0483 -84.7872 348° North 454 522 40,000  Level Atlanta Center
Sat 08:35:54 AM 35.1756 -84.8189 349° North 459 528 40,000  Level Atlanta Center
Sat 08:36:54 AM 35.3067 -84.8506 349° North 464 534 40,000  Level Atlanta Center
Sat 08:37:54 AM 35.4317 -84.8825 348° North 464 534 40,000  Level Atlanta Center
Sat 08:38:54 AM 35.5586 -84.9144 348° North 469 540 40,000  Level Atlanta Center
Sat 08:39:54 AM 35.6858 -84.9489 348° North 469 540 40,000  Level Atlanta Center
Sat 08:40:54 AM 35.8211 -84.9761 351° North 475 547 40,000  Level Atlanta Center
Sat 08:42:21 AM 35.9853 -85.0217 347° North 476 548 40,000  Level Indianapolis Center
Sat 08:43:22 AM 36.1422 -85.0614 348° North 476 548 40,000  Level Indianapolis Center
Sat 08:44:23 AM 36.2706 -85.0942 348° North 471 542 40,000  Level Indianapolis Center
Sat 08:45:24 AM 36.4006 -85.1283 348° North 473 544 40,000  Level Indianapolis Center
Sat 08:46:26 AM 36.5308 -85.1611 349° North 477 549 40,000  Level Indianapolis Center
Sat 08:47:27 AM 36.6611 -85.1944 348° North 478 550 40,000  Level Indianapolis Center
Sat 08:48:28 AM 36.7922 -85.2283 348° North 479 551 40,000  Level Indianapolis Center
Sat 08:49:30 AM 36.9219 -85.2633 348° North 478 550 40,000  Level Indianapolis Center
Sat 08:50:31 AM 37.0594 -85.2992 348° North 480 552 40,000  Level Indianapolis Center
Sat 08:51:32 AM 37.1900 -85.3328 348° North 479 551 40,000  Level Indianapolis Center
Sat 08:52:33 AM 37.3206 -85.3678 348° North 478 550 40,000  Level Indianapolis Center
Sat 08:53:35 AM 37.4525 -85.4028 348° North 480 552 40,000  Level Indianapolis Center
Sat 08:54:36 AM 37.5833 -85.4386 348° North 479 551 40,000  Level Indianapolis Center
Sat 08:55:37 AM 37.7139 -85.4739 348° North 478 550 40,000  Level Indianapolis Center
Sat 08:56:39 AM 37.8533 -85.5094 349° North 484 557 40,000  Level Indianapolis Center
Sat 08:57:40 AM 37.9842 -85.5442 348° North 480 552 40,000  Level Indianapolis Center
Sat 08:58:41 AM 38.1142 -85.5792 348° North 477 549 40,000 -49 Level Indianapolis Center
Sat 08:59:43 AM 38.2472 -85.6042 352° North 481 554 39,900 -537 Descending Indianapolis Center
Sat 09:00:44 AM 38.3825 -85.6308 351° North 489 563 38,900 -1,268 Descending Indianapolis Center
Sat 09:01:46 AM 38.5475 -85.6636 351° North 498 573 37,300 -1,696 Descending Indianapolis Center
Sat 09:03:00 AM 38.6954 -85.6810 350° North  Level FlightAware Approximate
Sat 09:03:48 AM 38.8103 -85.6983 350° North 512 589 33,700  Level Indianapolis Center
Sat 09:04:50 AM 38.9500 -85.7008 359° North 505 581 31,600 -2,146 Descending Indianapolis Center
Sat 09:05:51 AM 39.1217 -85.7092 358° North 517 595 29,300 -2,146 Descending Indianapolis Center
Sat 09:06:53 AM 39.2614 -85.6958 North 506 582 27,200 -1,610 Descending Indianapolis Center
Sat 09:07:54 AM 39.3942 -85.7008 358° North 482 555 26,000 -585 Descending Indianapolis Center
Sat 09:08:56 AM 39.5178 -85.7389 347° North 464 534 26,000  Level Indianapolis Center
Sat 09:09:57 AM 39.6378 -85.7758 347° North 450 518 26,000 -393 Level Indianapolis Center
Sat 09:10:58 AM 39.7564 -85.8136 346° North 444 511 25,200 -976 Descending Indianapolis Center
Sat 09:12:00 AM 39.8972 -85.8583 346° North 441 507 24,000 -585 Descending Indianapolis Center
Sat 09:13:01 AM 40.0122 -85.8936 347° North 432 497 24,000  Level Indianapolis Center
Sat 09:14:03 AM 40.1261 -85.9306 346° North 427 491 24,000 -195 Level Indianapolis Center
Sat 09:15:04 AM 40.2419 -85.9661 347° North 430 495 23,600 -683 Descending Indianapolis Center
Sat 09:16:06 AM 40.3550 -86.0028 346° North 424 488 22,600 -976 Descending Indianapolis Center
Sat 09:17:07 AM 40.4644 -86.0369 347° North 411 473 21,600 -1,024 Descending Indianapolis Center
Sat 09:18:09 AM 40.5811 -86.1122 334° Northwest 394 453 20,500 -1,220 Descending Indianapolis Center
Sat 09:19:10 AM 40.6778 -86.1775 333° Northwest 391 450 19,100 -1,623 Descending Indianapolis Center
Sat 09:20:11 AM 40.7694 -86.2406 332° Northwest 379 436 17,200 -1,951 Descending Indianapolis Center
Sat 09:21:13 AM 40.8600 -86.3017 333° Northwest 371 427 15,100 -1,951 Descending Indianapolis Center
Sat 09:22:14 AM 40.9475 -86.3625 332° Northwest 362 417 13,200 -1,854 Descending Indianapolis Center
Sat 09:23:16 AM 41.0328 -86.4244 331° Northwest 354 407 11,300 -1,024 Descending Indianapolis Center
Sat 09:24:17 AM 41.0853 -86.5178 307° West 332 382 11,100 -246 Descending Indianapolis Center
Sat 09:25:18 AM 41.1342 -86.6189 303° West 328 377 10,800 -537 Descending Indianapolis Center
Sat 09:26:20 AM 41.2028 -86.7125 314° West 304 350 10,000 -300 Descending Indianapolis Center
Sat 09:27:38 AM 41.2731 -86.8133 313° West 286 329 10,100 77 Climbing Chicago Center

Login

Don't have an account? Register now (free) for customized features, flight alerts, and more!